Time;durP1;ratioP1;P1;durP2;ratioP2;P2;SDS_P1;SDS_P2;PMS_P1;PMS_P2;Temp;Humidity;BMP_temperature;BMP_pressure;BME280_temperature;BME280_humidity;BME280_pressure;Samples;Min_cycle;Max_cycle;Signal;HPM_P1;HPM_P2
2023/03/24 00:00:27;;;;;;;4.30;2.10;;;23.50;99.90;;;;;;5075773;28;20193;-80
2023/03/24 00:03:01;;;;;;;6.20;1.95;;;23.40;99.90;;;;;;5068916;28;20371;-80
2023/03/24 00:05:32;;;;;;;4.28;2.03;;;23.30;99.90;;;;;;5069646;28;20270;-80
2023/03/24 00:08:06;;;;;;;4.20;2.20;;;23.30;99.90;;;;;;5075594;28;20205;-80
2023/03/24 00:10:37;;;;;;;2.95;2.10;;;23.40;99.90;;;;;;5075579;28;20185;-80
2023/03/24 00:13:08;;;;;;;4.28;2.13;;;23.40;99.90;;;;;;5075629;28;20193;-80
2023/03/24 00:15:39;;;;;;;5.35;2.35;;;23.30;99.90;;;;;;5075484;28;20193;-82
2023/03/24 00:18:10;;;;;;;4.68;2.40;;;23.30;99.90;;;;;;5075374;28;20221;-79
2023/03/24 00:20:42;;;;;;;7.15;2.60;;;23.20;99.90;;;;;;5075444;28;20185;-80
2023/03/24 00:23:15;;;;;;;5.28;2.47;;;23.20;99.90;;;;;;5074287;28;20192;-80
2023/03/24 00:25:48;;;;;;;5.93;2.65;;;23.20;99.90;;;;;;5059586;28;20679;-80
2023/03/24 00:28:19;;;;;;;6.18;2.90;;;23.20;99.90;;;;;;5055339;28;20292;-81
2023/03/24 00:30:52;;;;;;;5.75;2.72;;;23.30;99.90;;;;;;5055326;28;20190;-82
2023/03/24 00:33:24;;;;;;;7.85;2.70;;;23.60;99.90;;;;;;5055366;28;20655;-82
2023/03/24 00:35:56;;;;;;;6.05;2.60;;;23.70;99.90;;;;;;5054918;28;20288;-82
2023/03/24 00:38:30;;;;;;;6.03;2.38;;;23.70;99.90;;;;;;5054596;28;20237;-83
2023/03/24 00:41:01;;;;;;;6.25;2.58;;;23.70;99.90;;;;;;5055352;28;20200;-81
2023/03/24 00:43:32;;;;;;;8.02;2.60;;;23.80;99.90;;;;;;5055745;28;20572;-76
2023/03/24 00:46:04;;;;;;;7.00;2.60;;;24.00;99.90;;;;;;5055039;28;20194;-79
2023/03/24 00:48:37;;;;;;;9.07;2.80;;;24.20;99.90;;;;;;5054997;28;20201;-80
2023/03/24 00:51:09;;;;;;;7.68;2.58;;;24.50;99.90;;;;;;5054978;28;20185;-81
2023/03/24 00:53:42;;;;;;;6.97;2.75;;;24.60;99.90;;;;;;5054718;28;20185;-78
2023/03/24 00:56:14;;;;;;;9.45;2.80;;;24.70;99.90;;;;;;5054905;28;20200;-79
2023/03/24 00:58:45;;;;;;;7.95;2.60;;;24.90;99.90;;;;;;5054629;28;20233;-83
2023/03/24 01:01:16;;;;;;;6.28;2.60;;;25.10;99.90;;;;;;5054726;28;20194;-83
2023/03/24 01:03:49;;;;;;;6.00;2.70;;;25.20;99.90;;;;;;5054640;28;20186;-82
2023/03/24 01:06:22;;;;;;;7.63;2.33;;;25.20;99.90;;;;;;5053565;28;20271;-80
2023/03/24 01:08:56;;;;;;;5.03;2.60;;;25.30;99.90;;;;;;5062584;28;20208;-80
2023/03/24 01:11:28;;;;;;;7.60;2.70;;;25.50;99.90;;;;;;5074421;28;20196;-83
2023/03/24 01:13:59;;;;;;;7.00;2.45;;;25.70;99.90;;;;;;5074390;28;20188;-81
2023/03/24 01:16:30;;;;;;;5.22;2.67;;;25.70;99.90;;;;;;5074365;28;20637;-81
2023/03/24 01:19:01;;;;;;;6.03;2.33;;;25.70;99.90;;;;;;5074175;28;20306;-80
2023/03/24 01:21:33;;;;;;;6.18;2.65;;;25.40;99.90;;;;;;5074067;28;20193;-79
2023/03/24 01:24:07;;;;;;;3.58;2.30;;;25.00;99.90;;;;;;5073863;28;20211;-82
2023/03/24 01:26:38;;;;;;;5.78;2.40;;;24.70;99.90;;;;;;5074329;28;20204;-79
2023/03/24 01:29:09;;;;;;;4.72;2.20;;;24.80;99.90;;;;;;5073998;28;20189;-79
2023/03/24 01:31:41;;;;;;;5.28;2.05;;;25.10;99.90;;;;;;5071180;28;20192;-80
2023/03/24 01:34:12;;;;;;;7.80;2.25;;;25.20;99.90;;;;;;5068954;28;20201;-80
2023/03/24 01:36:43;;;;;;;7.20;2.25;;;25.20;99.90;;;;;;5053242;28;20189;-80
2023/03/24 01:39:16;;;;;;;5.30;2.55;;;25.10;99.90;;;;;;5072147;28;20240;-82
2023/03/24 01:41:47;;;;;;;4.38;2.17;;;25.00;99.90;;;;;;5069425;28;20197;-81
2023/03/24 01:44:30;;;;;;;6.60;2.25;;;25.10;99.90;;;;;;5054446;28;20215;-78
2023/03/24 01:47:04;;;;;;;5.68;2.00;;;25.20;99.90;;;;;;5052328;28;20205;-81
2023/03/24 01:49:40;;;;;;;6.18;2.65;;;25.40;99.90;;;;;;5053472;28;20222;-82
2023/03/24 01:52:16;;;;;;;9.43;2.35;;;25.50;99.90;;;;;;5053836;28;20194;-85
2023/03/24 01:54:54;;;;;;;8.07;2.50;;;25.30;99.90;;;;;;5056159;28;20189;-80
2023/03/24 01:57:29;;;;;;;6.45;2.20;;;25.40;99.90;;;;;;5053613;28;20205;-79
2023/03/24 02:00:03;;;;;;;4.20;2.03;;;25.50;99.90;;;;;;5058802;28;20206;-81
2023/03/24 02:02:36;;;;;;;5.47;1.90;;;25.50;99.90;;;;;;5056505;28;20209;-79
2023/03/24 02:05:10;;;;;;;4.35;1.73;;;25.50;99.90;;;;;;5059851;28;20224;-83
2023/03/24 02:07:46;;;;;;;5.05;1.75;;;25.40;99.90;;;;;;5063125;28;20661;-82
2023/03/24 02:10:21;;;;;;;4.53;1.60;;;25.40;99.90;;;;;;5065766;28;20255;-80
2023/03/24 02:12:52;;;;;;;6.65;1.95;;;25.40;99.90;;;;;;5065567;28;20199;-83
2023/03/24 02:15:24;;;;;;;7.05;1.92;;;25.50;99.90;;;;;;5056202;28;20193;-77
2023/03/24 02:18:06;;;;;;;5.85;1.90;;;25.60;99.90;;;;;;5059623;28;20217;-78
2023/03/24 02:21:13;;;;;;;4.70;2.13;;;25.70;99.90;;;;;;5057802;28;20551;-80
2023/03/24 02:24:25;;;;;;;4.75;1.90;;;25.80;99.90;;;;;;5067486;28;20201;-79
2023/03/24 02:27:05;;;;;;;6.40;2.10;;;25.90;99.90;;;;;;5045940;28;20207;-80
2023/03/24 02:30:09;;;;;;;7.68;2.20;;;25.90;99.90;;;;;;5059514;28;20205;-83
2023/03/24 02:33:27;;;;;;;5.55;1.88;;;25.90;99.90;;;;;;5047136;28;20200;-81
2023/03/24 02:36:27;;;;;;;4.38;2.03;;;25.70;99.90;;;;;;5061892;28;20207;-80
2023/03/24 02:39:37;;;;;;;7.10;2.30;;;25.60;99.90;;;;;;5056343;28;20610;-83
2023/03/24 02:42:19;;;;;;;3.47;1.83;;;25.60;99.90;;;;;;5072209;28;20250;-80
2023/03/24 02:44:59;;;;;;;6.63;2.50;;;25.60;99.90;;;;;;5063112;28;20199;-81
2023/03/24 02:47:40;;;;;;;6.30;2.10;;;25.40;99.90;;;;;;5058165;28;20200;-80
2023/03/24 02:50:18;;;;;;;5.38;2.08;;;25.40;99.90;;;;;;5055151;28;20197;-81
2023/03/24 02:52:55;;;;;;;6.30;2.28;;;25.30;99.90;;;;;;5056014;28;20193;-80
2023/03/24 02:55:35;;;;;;;5.20;2.30;;;25.40;99.90;;;;;;5067815;28;20206;-80
2023/03/24 02:58:10;;;;;;;10.00;2.30;;;25.50;99.90;;;;;;5072096;28;20212;-81
2023/03/24 03:00:48;;;;;;;5.82;2.30;;;25.50;99.90;;;;;;5068962;28;20193;-78
2023/03/24 03:03:24;;;;;;;5.13;2.35;;;25.40;99.90;;;;;;5070772;28;20199;-80
2023/03/24 03:05:59;;;;;;;5.45;2.38;;;25.40;99.90;;;;;;5069756;28;20199;-80
2023/03/24 03:08:33;;;;;;;7.47;2.20;;;25.40;99.90;;;;;;5061647;28;20215;-82
2023/03/24 03:11:10;;;;;;;5.03;2.25;;;25.30;99.90;;;;;;5070493;28;20196;-84
2023/03/24 03:13:44;;;;;;;4.43;2.00;;;25.40;99.90;;;;;;5062741;28;20298;-84
2023/03/24 03:16:21;;;;;;;5.45;2.20;;;25.30;99.90;;;;;;5056606;28;20559;-81
2023/03/24 03:18:58;;;;;;;5.55;2.15;;;25.30;99.90;;;;;;5068726;28;20208;-81
2023/03/24 03:21:34;;;;;;;3.22;1.88;;;25.40;99.90;;;;;;5074926;28;20283;-82
2023/03/24 03:24:09;;;;;;;5.78;2.10;;;25.40;99.90;;;;;;5057382;28;20196;-83
2023/03/24 03:26:44;;;;;;;3.15;1.67;;;25.60;99.90;;;;;;5063170;28;20675;-79
2023/03/24 03:29:20;;;;;;;8.20;1.88;;;25.60;99.90;;;;;;5063550;28;20193;-80
2023/03/24 03:31:58;;;;;;;4.32;1.85;;;25.60;99.90;;;;;;5057129;28;20197;-81
2023/03/24 03:34:37;;;;;;;2.83;1.80;;;25.60;99.90;;;;;;5057199;28;20196;-81
2023/03/24 03:37:12;;;;;;;5.50;1.45;;;25.50;99.90;;;;;;5059215;28;20539;-79
2023/03/24 03:39:48;;;;;;;4.50;1.50;;;25.50;99.90;;;;;;5057142;28;20651;-80
2023/03/24 03:42:21;;;;;;;5.10;1.67;;;25.30;99.90;;;;;;5063422;28;20204;-84
2023/03/24 03:44:54;;;;;;;3.58;1.60;;;25.30;99.90;;;;;;5064481;28;20201;-82
2023/03/24 03:47:27;;;;;;;5.50;1.80;;;25.20;99.90;;;;;;5064801;28;20239;-80
2023/03/24 03:49:59;;;;;;;7.00;1.88;;;25.20;99.90;;;;;;5067038;28;20196;-83
2023/03/24 03:52:31;;;;;;;4.97;1.40;;;25.10;99.90;;;;;;5056990;28;20209;-82
2023/03/24 03:55:03;;;;;;;4.85;1.75;;;25.00;99.90;;;;;;5065280;28;20201;-77
2023/03/24 03:57:37;;;;;;;3.92;1.48;;;24.80;99.90;;;;;;5058710;28;20189;-76
2023/03/24 04:00:12;;;;;;;6.07;1.95;;;24.80;99.90;;;;;;5057866;28;20225;-79
2023/03/24 04:02:58;;;;;;;5.10;1.58;;;24.90;99.90;;;;;;5056230;28;20238;-73
2023/03/24 04:05:36;;;;;;;5.45;1.60;;;24.90;99.90;;;;;;5070951;28;20596;-78
2023/03/24 04:08:24;;;;;;;7.40;1.60;;;24.90;99.90;;;;;;5055626;28;20192;-77
2023/03/24 04:11:12;;;;;;;5.72;1.60;;;25.00;99.90;;;;;;5055896;28;20567;-78
2023/03/24 04:13:56;;;;;;;6.85;1.70;;;25.00;99.90;;;;;;5068313;28;20200;-78
2023/03/24 04:16:40;;;;;;;5.53;1.58;;;25.00;99.90;;;;;;5055412;28;20189;-77
2023/03/24 04:19:20;;;;;;;8.05;1.60;;;24.90;99.90;;;;;;5055289;28;20221;-77
2023/03/24 04:22:04;;;;;;;7.20;1.60;;;24.80;99.90;;;;;;5055541;28;20186;-78
2023/03/24 04:24:48;;;;;;;4.22;1.42;;;24.80;99.90;;;;;;5055384;28;20193;-78
2023/03/24 04:27:29;;;;;;;5.85;1.80;;;24.70;99.90;;;;;;5055407;28;20240;-77
2023/03/24 04:30:15;;;;;;;3.85;1.60;;;24.60;99.90;;;;;;5055734;28;20205;-78
2023/03/24 04:32:51;;;;;;;3.90;1.38;;;24.50;99.90;;;;;;5071773;28;20193;-81
2023/03/24 04:35:30;;;;;;;3.95;1.50;;;24.50;99.90;;;;;;5075230;28;20189;-78
2023/03/24 04:38:05;;;;;;;7.68;1.90;;;24.40;99.90;;;;;;5075197;28;20188;-78
2023/03/24 04:40:40;;;;;;;7.28;1.60;;;24.30;99.90;;;;;;5075131;28;20646;-77
2023/03/24 04:43:16;;;;;;;2.78;1.40;;;24.30;99.90;;;;;;5075001;28;20258;-78
2023/03/24 04:45:49;;;;;;;5.43;1.52;;;24.30;99.90;;;;;;5074967;28;20193;-79
2023/03/24 04:48:21;;;;;;;4.45;1.30;;;24.30;99.90;;;;;;5061291;28;20208;-79
2023/03/24 04:50:57;;;;;;;3.53;1.42;;;24.40;99.90;;;;;;5054946;28;20360;-79
2023/03/24 04:53:28;;;;;;;6.28;1.40;;;24.30;99.90;;;;;;5054877;28;20211;-80
2023/03/24 04:56:28;;;;;;;3.08;1.25;;;24.30;99.90;;;;;;5054750;28;20201;-78
2023/03/24 04:58:59;;;;;;;4.43;1.48;;;24.30;99.90;;;;;;5054442;28;20283;-78
2023/03/24 05:01:36;;;;;;;3.38;1.42;;;24.30;99.90;;;;;;5067586;28;20726;-79
2023/03/24 05:04:07;;;;;;;8.55;1.63;;;24.20;99.90;;;;;;5066620;28;20224;-80
2023/03/24 05:06:39;;;;;;;6.53;1.63;;;24.20;99.90;;;;;;5054402;28;20193;-83
2023/03/24 05:09:10;;;;;;;6.38;1.40;;;24.10;99.90;;;;;;5054605;28;20225;-80
2023/03/24 05:11:41;;;;;;;3.20;1.30;;;24.10;99.90;;;;;;5054511;28;20201;-80
2023/03/24 05:14:12;;;;;;;4.57;1.50;;;24.10;99.90;;;;;;5054577;28;20190;-81
2023/03/24 05:16:45;;;;;;;5.43;1.38;;;24.10;99.90;;;;;;5054440;28;20189;-81
2023/03/24 05:19:16;;;;;;;4.28;1.35;;;24.20;99.90;;;;;;5054235;28;20224;-80
2023/03/24 05:21:48;;;;;;;2.92;1.15;;;24.30;99.90;;;;;;5061860;28;20193;-80
2023/03/24 05:24:19;;;;;;;4.65;1.20;;;24.30;99.90;;;;;;5056858;28;20220;-80
2023/03/24 05:26:50;;;;;;;5.95;1.30;;;24.40;99.90;;;;;;5063155;28;20206;-81
2023/03/24 05:29:21;;;;;;;3.40;1.10;;;24.40;99.90;;;;;;5054046;28;20197;-78
2023/03/24 05:31:54;;;;;;;3.15;1.20;;;24.50;99.90;;;;;;5054169;28;20196;-80
2023/03/24 05:34:25;;;;;;;3.45;1.20;;;24.60;99.90;;;;;;5056481;28;20196;-82
2023/03/24 05:36:56;;;;;;;3.60;1.27;;;24.60;99.90;;;;;;5054031;28;20193;-77
2023/03/24 05:39:27;;;;;;;6.13;1.48;;;24.60;99.90;;;;;;5053713;28;20255;-81
2023/03/24 05:41:58;;;;;;;5.82;1.75;;;24.60;99.90;;;;;;5052881;28;20208;-78
2023/03/24 05:44:30;;;;;;;2.28;1.15;;;24.60;99.90;;;;;;5053760;28;20189;-80
2023/03/24 05:47:03;;;;;;;7.45;1.70;;;24.60;99.90;;;;;;5072712;28;20192;-79
2023/03/24 05:49:34;;;;;;;4.63;1.40;;;24.60;99.90;;;;;;5073745;28;20200;-81
2023/03/24 05:52:05;;;;;;;3.08;1.25;;;24.70;99.90;;;;;;5073744;28;20189;-80
2023/03/24 05:54:36;;;;;;;3.47;1.30;;;24.60;99.90;;;;;;5073583;28;20196;-78
2023/03/24 05:57:08;;;;;;;3.28;1.23;;;24.50;99.90;;;;;;5067066;28;20193;-77
2023/03/24 05:59:39;;;;;;;3.15;1.08;;;24.50;99.90;;;;;;5060927;28;20206;-78
2023/03/24 06:02:13;;;;;;;6.03;1.20;;;24.40;99.90;;;;;;5060820;28;20221;-80
2023/03/24 06:04:47;;;;;;;4.05;1.10;;;24.30;99.90;;;;;;5053385;28;20691;-79
2023/03/24 06:07:18;;;;;;;3.08;1.30;;;24.30;99.90;;;;;;5053507;28;20225;-76
2023/03/24 06:09:51;;;;;;;4.88;1.30;;;24.30;99.90;;;;;;5053539;28;20272;-81
2023/03/24 06:12:22;;;;;;;4.65;1.35;;;24.20;99.90;;;;;;5053229;28;20281;-77
2023/03/24 06:14:53;;;;;;;3.83;1.30;;;24.20;99.90;;;;;;5052286;28;20193;-77
2023/03/24 06:17:27;;;;;;;3.78;1.30;;;24.20;99.90;;;;;;5059768;28;20185;-78
2023/03/24 06:20:04;;;;;;;4.47;1.30;;;24.20;99.90;;;;;;5073554;28;20217;-76
2023/03/24 06:22:36;;;;;;;3.35;1.23;;;24.10;99.90;;;;;;5052561;28;20559;-78
2023/03/24 06:25:08;;;;;;;4.75;1.23;;;24.10;99.90;;;;;;5053229;28;20197;-76
2023/03/24 06:27:41;;;;;;;2.38;1.30;;;24.10;99.90;;;;;;5053088;28;20641;-78
2023/03/24 06:30:13;;;;;;;3.00;1.23;;;24.10;99.90;;;;;;5052944;28;20193;-78
2023/03/24 06:32:46;;;;;;;3.55;1.33;;;24.00;99.90;;;;;;5052750;28;20190;-79
2023/03/24 06:35:17;;;;;;;3.63;1.30;;;24.00;99.90;;;;;;5053209;28;20189;-77
2023/03/24 06:37:49;;;;;;;3.22;1.30;;;24.00;99.90;;;;;;5055666;28;20223;-78
2023/03/24 06:40:20;;;;;;;4.00;1.25;;;24.00;99.90;;;;;;5057293;28;20242;-78
2023/03/24 06:42:51;;;;;;;3.65;1.40;;;23.90;99.90;;;;;;5055855;28;20208;-76
2023/03/24 06:45:22;;;;;;;4.65;1.20;;;23.90;99.90;;;;;;5051831;28;20661;-79
2023/03/24 06:47:56;;;;;;;3.63;1.27;;;23.90;99.90;;;;;;5052868;28;20189;-77
2023/03/24 06:50:31;;;;;;;2.45;1.33;;;23.90;99.90;;;;;;5053012;28;20193;-77
2023/03/24 06:53:04;;;;;;;3.90;1.30;;;23.90;99.90;;;;;;5056472;28;20227;-77
2023/03/24 06:55:37;;;;;;;4.45;2.10;;;23.90;99.90;;;;;;5055244;28;20197;-78
2023/03/24 06:58:08;;;;;;;3.90;1.20;;;23.90;99.90;;;;;;5053810;28;20205;-78
2023/03/24 07:00:39;;;;;;;4.35;1.60;;;23.80;99.90;;;;;;5059191;28;20299;-80
2023/03/24 07:03:12;;;;;;;6.10;1.40;;;23.80;99.90;;;;;;5062847;28;20751;-77
2023/03/24 07:05:44;;;;;;;3.45;1.23;;;23.80;99.90;;;;;;5066488;28;20683;-79
2023/03/24 07:08:16;;;;;;;5.40;1.40;;;23.80;99.90;;;;;;5068348;28;20200;-77
2023/03/24 07:10:47;;;;;;;3.20;1.20;;;23.70;99.90;;;;;;5063591;28;20197;-78
2023/03/24 07:13:18;;;;;;;3.25;1.10;;;23.70;99.90;;;;;;5055385;28;20205;-81
2023/03/24 07:15:49;;;;;;;4.07;1.10;;;23.60;99.90;;;;;;5062825;28;20208;-79
2023/03/24 07:18:22;;;;;;;3.08;1.20;;;23.60;99.90;;;;;;5070618;28;20200;-79
2023/03/24 07:20:53;;;;;;;4.68;1.40;;;23.50;99.90;;;;;;5067177;28;20695;-78
2023/03/24 07:23:26;;;;;;;3.65;1.17;;;23.50;99.90;;;;;;5058163;28;20559;-80
2023/03/24 07:25:58;;;;;;;3.45;1.10;;;23.40;99.90;;;;;;5070303;28;20281;-79
2023/03/24 07:28:31;;;;;;;4.57;1.17;;;23.40;99.90;;;;;;5066897;28;20189;-79
2023/03/24 07:31:05;;;;;;;3.97;1.40;;;23.40;99.90;;;;;;5058644;28;20216;-80
2023/03/24 07:33:38;;;;;;;4.82;1.30;;;23.40;99.90;;;;;;5071420;28;20635;-78
2023/03/24 07:36:10;;;;;;;5.13;1.15;;;23.30;99.90;;;;;;5060902;28;20198;-79
2023/03/24 07:38:41;;;;;;;5.00;1.40;;;23.30;99.90;;;;;;5054273;28;20722;-79
2023/03/24 07:41:12;;;;;;;4.07;1.05;;;23.20;99.90;;;;;;5058349;28;20312;-79
2023/03/24 07:43:43;;;;;;;6.97;1.35;;;23.20;99.90;;;;;;5055084;28;20200;-79
2023/03/24 07:46:15;;;;;;;3.58;1.10;;;23.10;99.90;;;;;;5054919;28;20197;-78
2023/03/24 07:48:48;;;;;;;4.03;1.38;;;23.10;99.90;;;;;;5055697;28;20197;-79
2023/03/24 07:51:19;;;;;;;3.13;1.27;;;23.00;99.90;;;;;;5069570;28;20232;-79
2023/03/24 07:53:50;;;;;;;5.43;1.33;;;23.00;99.90;;;;;;5068689;28;20645;-79
2023/03/24 07:56:22;;;;;;;3.42;1.08;;;22.90;99.90;;;;;;5070627;28;20200;-78
2023/03/24 07:58:53;;;;;;;5.57;1.58;;;22.90;99.90;;;;;;5064623;28;20613;-81
2023/03/24 08:01:26;;;;;;;6.43;1.40;;;22.80;99.90;;;;;;5074049;28;20212;-79
2023/03/24 08:04:00;;;;;;;4.70;1.38;;;22.80;99.90;;;;;;5066671;28;20226;-78
2023/03/24 08:06:32;;;;;;;6.60;1.33;;;22.70;99.90;;;;;;5059325;28;20197;-78
2023/03/24 08:09:03;;;;;;;4.25;1.30;;;22.70;99.90;;;;;;5061995;28;20224;-78
2023/03/24 08:11:34;;;;;;;5.50;1.40;;;22.70;99.90;;;;;;5066167;28;20561;-78
2023/03/24 08:14:06;;;;;;;3.60;1.48;;;22.70;99.90;;;;;;5068870;28;20286;-79
2023/03/24 08:16:37;;;;;;;4.57;1.38;;;22.60;99.90;;;;;;5069565;28;20197;-78
2023/03/24 08:19:10;;;;;;;6.60;1.30;;;22.60;99.90;;;;;;5054771;28;20209;-79
2023/03/24 08:21:41;;;;;;;7.05;1.40;;;22.60;99.90;;;;;;5063312;28;20609;-79
2023/03/24 08:24:12;;;;;;;7.97;1.50;;;22.60;99.90;;;;;;5071247;28;20193;-79
2023/03/24 08:26:45;;;;;;;5.10;1.20;;;22.50;99.90;;;;;;5061988;28;20675;-79
2023/03/24 08:29:16;;;;;;;3.85;1.45;;;22.50;99.90;;;;;;5062536;28;20664;-78
2023/03/24 08:31:47;;;;;;;4.22;1.58;;;22.50;99.90;;;;;;5070756;28;20189;-79
2023/03/24 08:34:20;;;;;;;3.10;1.20;;;22.50;99.90;;;;;;5074954;28;20303;-79
2023/03/24 08:36:51;;;;;;;1.92;1.30;;;22.40;99.90;;;;;;5058568;28;20736;-79
2023/03/24 08:39:23;;;;;;;3.20;1.17;;;22.40;99.90;;;;;;5062225;28;20228;-78
2023/03/24 08:41:54;;;;;;;3.35;1.70;;;22.40;99.90;;;;;;5058066;28;20661;-79
2023/03/24 08:44:25;;;;;;;7.32;1.80;;;22.30;99.90;;;;;;5064119;28;20544;-79
2023/03/24 08:46:56;;;;;;;8.18;1.52;;;22.30;99.90;;;;;;5068189;28;20559;-79
2023/03/24 08:49:29;;;;;;;6.05;1.85;;;22.30;99.90;;;;;;5071061;28;20671;-79
2023/03/24 08:52:00;;;;;;;3.40;1.45;;;22.30;99.90;;;;;;5061930;28;20201;-78
2023/03/24 08:54:31;;;;;;;4.38;1.65;;;22.30;99.90;;;;;;5071966;28;20201;-78
2023/03/24 08:57:02;;;;;;;3.97;1.25;;;22.20;99.90;;;;;;5064418;28;20245;-79
2023/03/24 08:59:33;;;;;;;3.28;1.40;;;22.30;99.90;;;;;;5062654;28;20194;-78
2023/03/24 09:02:05;;;;;;;3.55;1.58;;;22.20;99.90;;;;;;5071267;28;20200;-78
2023/03/24 09:04:37;;;;;;;5.72;1.67;;;22.20;99.90;;;;;;5063393;28;20189;-79
2023/03/24 09:07:09;;;;;;;3.90;1.50;;;22.20;99.90;;;;;;5061801;28;20201;-78
2023/03/24 09:09:40;;;;;;;7.05;1.75;;;22.20;99.90;;;;;;5057905;28;20201;-79
2023/03/24 09:12:12;;;;;;;5.05;1.60;;;22.20;99.90;;;;;;5066724;28;20190;-79
2023/03/24 09:14:43;;;;;;;6.32;1.70;;;22.20;99.90;;;;;;5067426;28;20255;-78
2023/03/24 09:17:14;;;;;;;8.82;1.80;;;22.20;99.90;;;;;;5072484;28;20549;-79
2023/03/24 09:19:47;;;;;;;4.80;1.48;;;22.20;99.90;;;;;;5060823;28;20280;-79
2023/03/24 09:22:19;;;;;;;4.80;1.58;;;22.10;99.90;;;;;;5067914;28;20601;-79
2023/03/24 09:24:55;;;;;;;2.78;1.23;;;22.10;99.90;;;;;;5060300;28;20676;-79
2023/03/24 09:27:26;;;;;;;4.88;1.42;;;22.10;99.90;;;;;;5054809;28;20201;-79
2023/03/24 09:29:57;;;;;;;6.18;1.80;;;22.10;99.90;;;;;;5054303;28;20692;-79
2023/03/24 09:32:30;;;;;;;7.93;1.70;;;22.10;99.90;;;;;;5056369;28;20200;-78
2023/03/24 09:35:03;;;;;;;6.25;1.42;;;22.10;99.90;;;;;;5061101;28;20193;-79
2023/03/24 09:37:35;;;;;;;6.60;1.85;;;22.10;99.90;;;;;;5066266;28;20201;-79
2023/03/24 09:40:07;;;;;;;4.13;1.65;;;22.10;99.90;;;;;;5067568;28;20566;-79
2023/03/24 09:42:40;;;;;;;5.35;1.50;;;22.10;99.90;;;;;;5068248;28;20193;-79
2023/03/24 09:45:18;;;;;;;4.50;1.65;;;22.00;99.90;;;;;;5069351;28;20639;-78
2023/03/24 09:47:54;;;;;;;2.80;1.23;;;22.00;99.90;;;;;;5056500;28;20200;-79
2023/03/24 09:50:30;;;;;;;7.80;1.50;;;22.00;99.90;;;;;;5062868;28;20596;-78
2023/03/24 09:53:07;;;;;;;4.97;1.30;;;22.00;99.90;;;;;;5072406;28;20667;-78
2023/03/24 09:55:43;;;;;;;6.10;1.40;;;22.00;99.90;;;;;;5072165;28;20196;-79
2023/03/24 09:58:15;;;;;;;5.78;1.40;;;22.00;99.90;;;;;;5071799;28;20189;-79
2023/03/24 10:00:48;;;;;;;2.92;1.30;;;21.90;99.90;;;;;;5055092;28;20589;-79
2023/03/24 10:03:22;;;;;;;3.65;1.40;;;21.90;99.90;;;;;;5055345;28;20204;-79
2023/03/24 10:06:00;;;;;;;5.82;1.70;;;21.90;99.90;;;;;;5054982;28;20197;-79
2023/03/24 10:08:37;;;;;;;4.63;1.48;;;21.90;99.90;;;;;;5054924;28;20200;-79
2023/03/24 10:11:13;;;;;;;4.28;1.20;;;21.90;99.90;;;;;;5053370;28;20204;-79
2023/03/24 10:13:55;;;;;;;7.47;1.60;;;21.80;99.90;;;;;;5050336;28;20193;-79
2023/03/24 10:16:34;;;;;;;3.80;1.60;;;21.80;99.90;;;;;;5051815;28;20197;-78
2023/03/24 10:19:14;;;;;;;3.67;1.30;;;21.80;99.90;;;;;;5052262;28;20674;-78
2023/03/24 10:21:56;;;;;;;3.65;1.08;;;21.80;99.90;;;;;;5054917;28;20216;-79
2023/03/24 10:24:33;;;;;;;3.92;1.42;;;21.80;99.90;;;;;;5053722;28;20695;-79
2023/03/24 10:27:11;;;;;;;2.83;1.30;;;21.80;99.90;;;;;;5053522;28;20203;-79
2023/03/24 10:29:45;;;;;;;2.75;1.30;;;21.80;99.90;;;;;;5053589;28;20189;-79
2023/03/24 10:32:21;;;;;;;5.55;1.48;;;21.80;99.90;;;;;;5066854;28;20200;-79
2023/03/24 10:34:56;;;;;;;4.50;1.50;;;21.80;99.90;;;;;;5068701;28;20192;-79
2023/03/24 10:37:32;;;;;;;6.07;1.33;;;21.80;99.90;;;;;;5052969;28;20559;-79
2023/03/24 10:40:05;;;;;;;4.82;1.25;;;21.80;99.90;;;;;;5066748;28;20301;-78
2023/03/24 10:42:37;;;;;;;3.33;1.45;;;21.70;99.90;;;;;;5070254;28;20197;-79
2023/03/24 10:45:14;;;;;;;2.15;1.00;;;21.80;99.90;;;;;;5052770;28;20208;-79
2023/03/24 10:47:47;;;;;;;2.70;1.00;;;21.70;99.90;;;;;;5052842;28;20236;-79
2023/03/24 10:50:18;;;;;;;2.63;1.27;;;21.70;99.90;;;;;;5060173;28;20193;-79
2023/03/24 10:52:52;;;;;;;4.50;1.60;;;21.70;99.90;;;;;;5057455;28;20547;-79
2023/03/24 10:55:25;;;;;;;4.22;1.70;;;21.70;99.90;;;;;;5062595;28;20203;-79
2023/03/24 10:57:59;;;;;;;5.03;1.67;;;21.70;99.90;;;;;;5066151;28;20226;-80
2023/03/24 11:00:31;;;;;;;5.85;1.58;;;21.70;99.90;;;;;;5072854;28;20578;-80
2023/03/24 11:03:05;;;;;;;3.88;1.33;;;21.60;99.90;;;;;;5060146;28;20204;-80
2023/03/24 11:05:39;;;;;;;4.65;1.38;;;21.60;99.90;;;;;;5053624;28;20197;-80
2023/03/24 11:08:29;;;;;;;4.07;1.25;;;21.60;99.90;;;;;;5052923;28;20657;-80
2023/03/24 11:11:00;;;;;;;4.05;1.20;;;21.60;99.90;;;;;;5052691;28;20676;-80
2023/03/24 11:13:33;;;;;;;3.10;1.13;;;21.60;99.90;;;;;;5052896;28;20571;-80
2023/03/24 11:16:15;;;;;;;4.70;1.10;;;21.60;99.90;;;;;;5055476;28;20197;-80
2023/03/24 11:18:59;;;;;;;3.60;1.30;;;21.60;99.90;;;;;;5052455;28;20194;-80
2023/03/24 11:21:32;;;;;;;4.05;1.27;;;21.60;99.90;;;;;;5057962;28;20217;-80
2023/03/24 11:24:08;;;;;;;3.58;1.20;;;21.60;99.90;;;;;;5062223;28;20202;-80
2023/03/24 11:26:42;;;;;;;3.45;1.33;;;21.50;99.90;;;;;;5071656;28;20204;-80
2023/03/24 11:29:17;;;;;;;2.63;1.30;;;21.50;99.90;;;;;;5058984;28;20641;-80
2023/03/24 11:31:55;;;;;;;5.13;1.60;;;21.50;99.90;;;;;;5065718;28;20597;-80
2023/03/24 11:34:33;;;;;;;4.82;1.40;;;21.50;99.90;;;;;;5076457;28;20192;-80
2023/03/24 11:37:07;;;;;;;3.65;1.25;;;21.50;99.90;;;;;;5064842;28;20634;-80
2023/03/24 11:39:40;;;;;;;2.78;1.33;;;21.50;99.90;;;;;;5056202;28;20232;-80
2023/03/24 11:42:20;;;;;;;3.38;1.42;;;21.50;99.90;;;;;;5061055;28;20679;-80
2023/03/24 11:44:54;;;;;;;2.45;1.20;;;21.40;99.90;;;;;;5067469;28;20227;-80
2023/03/24 11:47:32;;;;;;;3.78;1.50;;;21.40;99.90;;;;;;5061869;28;20198;-80
2023/03/24 11:50:16;;;;;;;5.20;2.10;;;21.40;99.90;;;;;;5061259;28;20559;-80
2023/03/24 11:52:52;;;;;;;6.05;2.45;;;21.40;99.90;;;;;;5068803;28;20571;-80
2023/03/24 11:55:31;;;;;;;5.13;2.28;;;21.40;99.90;;;;;;5056575;28;20204;-80
2023/03/24 11:58:06;;;;;;;4.97;2.15;;;21.40;99.90;;;;;;5063093;28;20197;-80
2023/03/24 12:00:41;;;;;;;4.38;2.25;;;21.40;99.90;;;;;;5057114;28;20197;-80
2023/03/24 12:03:41;;;;;;;4.47;2.20;;;21.40;99.90;;;;;;5055441;28;20579;-80
2023/03/24 12:06:26;;;;;;;4.95;2.42;;;21.40;99.90;;;;;;5071999;28;20195;-80
2023/03/24 12:09:08;;;;;;;4.20;2.28;;;21.40;99.90;;;;;;5076004;28;20189;-80
2023/03/24 12:11:55;;;;;;;4.63;2.17;;;21.30;99.90;;;;;;5076078;28;20330;-80
2023/03/24 12:14:34;;;;;;;4.30;2.15;;;21.30;99.90;;;;;;5069068;28;20600;-80
2023/03/24 12:17:12;;;;;;;3.17;1.70;;;21.20;99.90;;;;;;5066278;28;20200;-80
2023/03/24 12:20:08;;;;;;;3.10;1.65;;;21.30;99.90;;;;;;5055557;28;20212;-81
2023/03/24 12:22:56;;;;;;;2.70;1.30;;;21.30;99.90;;;;;;5055432;28;20269;-79
2023/03/24 12:25:47;;;;;;;4.57;1.65;;;21.20;99.90;;;;;;5055492;28;20189;-80
2023/03/24 12:28:47;;;;;;;2.72;1.50;;;21.20;99.90;;;;;;5055198;28;20566;-80
2023/03/24 12:31:35;;;;;;;4.30;1.60;;;21.20;99.90;;;;;;5053328;28;20669;-80
2023/03/24 12:34:28;;;;;;;3.05;1.40;;;21.30;99.90;;;;;;5054915;28;20197;-80
2023/03/24 12:37:05;;;;;;;3.20;1.25;;;21.30;99.90;;;;;;5055543;28;20196;-80
2023/03/24 12:39:42;;;;;;;2.55;1.30;;;21.30;99.90;;;;;;5053378;28;20229;-80
2023/03/24 12:42:15;;;;;;;3.83;1.30;;;21.30;99.90;;;;;;5054658;28;20681;-80
2023/03/24 12:45:20;;;;;;;2.10;1.10;;;21.30;99.90;;;;;;5066225;28;20200;-80
2023/03/24 12:48:06;;;;;;;2.28;1.30;;;21.40;99.90;;;;;;5063587;28;20200;-80
2023/03/24 12:50:46;;;;;;;3.22;1.20;;;21.40;99.90;;;;;;5053404;28;20562;-80
2023/03/24 12:53:33;;;;;;;3.75;1.30;;;21.40;99.90;;;;;;5060500;28;20246;-80
2023/03/24 12:56:11;;;;;;;3.28;1.00;;;21.40;99.90;;;;;;5061876;28;20193;-80
2023/03/24 12:58:46;;;;;;;2.00;1.10;;;21.40;99.90;;;;;;5071310;28;20550;-80
2023/03/24 13:01:28;;;;;;;3.50;1.20;;;21.40;99.90;;;;;;5058718;28;20208;-80
2023/03/24 13:04:04;;;;;;;6.10;1.58;;;21.40;99.90;;;;;;5066121;28;20651;-80
2023/03/24 13:06:40;;;;;;;3.85;1.33;;;21.40;99.90;;;;;;5058038;28;20263;-80
2023/03/24 13:09:33;;;;;;;4.53;1.30;;;21.40;99.90;;;;;;5054940;28;20200;-80
2023/03/24 13:12:11;;;;;;;4.13;1.40;;;21.50;99.90;;;;;;5058186;28;20197;-80
2023/03/24 13:14:51;;;;;;;5.25;1.40;;;21.40;99.90;;;;;;5074566;28;20204;-80
2023/03/24 13:17:29;;;;;;;2.75;1.05;;;21.50;99.90;;;;;;5069604;28;20684;-80
2023/03/24 13:20:05;;;;;;;4.47;1.10;;;21.50;99.90;;;;;;5067922;28;20189;-80
2023/03/24 13:22:37;;;;;;;2.22;0.80;;;21.50;99.90;;;;;;5056909;28;20224;-80
2023/03/24 13:25:19;;;;;;;6.95;1.85;;;21.50;99.90;;;;;;5054717;28;20193;-80
2023/03/24 13:27:52;;;;;;;3.15;1.20;;;21.50;99.90;;;;;;5074058;28;20193;-80
2023/03/24 13:30:37;;;;;;;3.33;1.02;;;21.50;99.90;;;;;;5064988;28;20194;-80